Time;durP1;ratioP1;P1;durP2;ratioP2;P2;SDS_P1;SDS_P2;PMS_P1;PMS_P2;Temp;Humidity;BMP_temperature;BMP_pressure;BME280_temperature;BME280_humidity;BME280_pressure;Samples;Min_cycle;Max_cycle;Signal;HPM_P1;HPM_P2
2021/03/28 00:00:45;;;;;;;;;;;;;;;0.47;100.00;101858.34;5058745;28;19934;-72
2021/03/28 00:03:17;;;;;;;;;;;;;;;0.35;100.00;101859.47;5076306;28;19932;-72
2021/03/28 00:05:44;;;;;;;;;;;;;;;0.30;100.00;101864.88;5058368;28;19932;-71
2021/03/28 00:08:17;;;;;;;;;;;;;;;0.28;100.00;101863.16;5063437;28;19968;-72
2021/03/28 00:10:43;;;;;;;;;;;;;;;0.25;100.00;101863.22;5083440;28;19924;-72
2021/03/28 00:13:12;;;;;;;;;;;;;;;0.28;100.00;101858.72;5084412;28;19929;-72
2021/03/28 00:15:40;;;;;;;;;;;;;;;0.36;100.00;101863.00;5082582;28;19928;-72
2021/03/28 00:18:09;;;;;;;;;;;;;;;0.39;100.00;101868.28;5078307;28;19924;-72
2021/03/28 00:20:36;;;;;;;;;;;;;;;0.39;100.00;101869.16;5057414;28;19982;-71
2021/03/28 00:23:06;;;;;;;;;;;;;;;0.41;100.00;101874.47;5075006;28;20370;-72
2021/03/28 00:25:34;;;;;;;;;;;;;;;0.32;100.00;101865.75;5075019;28;19929;-72
2021/03/28 00:28:01;;;;;;;;;;;;;;;0.35;100.00;101870.16;5074847;28;19928;-72
2021/03/28 00:30:28;;;;;;;;;;;;;;;0.36;100.00;101861.22;5074683;28;20042;-72
2021/03/28 00:32:57;;;;;;;;;;;;;;;0.38;100.00;101863.88;5074369;28;19924;-72
2021/03/28 00:35:26;;;;;;;;;;;;;;;0.36;100.00;101863.91;5074227;28;19925;-72
2021/03/28 00:38:01;;;;;;;;;;;;;;;0.32;100.00;101862.16;5074189;28;19925;-72
2021/03/28 00:40:30;;;;;;;;;;;;;;;0.26;100.00;101860.50;5074002;28;19932;-72
2021/03/28 00:43:07;;;;;;;;;;;;;;;0.28;100.00;101863.16;5074111;28;19925;-72
2021/03/28 00:45:35;;;;;;;;;;;;;;;0.31;100.00;101863.97;5074009;28;19939;-71
2021/03/28 00:48:06;;;;;;;;;;;;;;;0.36;100.00;101869.25;5055805;28;19925;-71
2021/03/28 00:50:35;;;;;;;;;;;;;;;0.36;100.00;101866.56;5073862;28;19935;-71
2021/03/28 00:53:02;;;;;;;;;;;;;;;0.31;100.00;101868.44;5055981;28;19970;-71
2021/03/28 00:55:37;;;;;;;;;;;;;;;0.27;100.00;101872.09;5055001;28;19982;-71
2021/03/28 00:58:07;;;;;;;;;;;;;;;0.26;100.00;101867.66;5073496;28;19924;-71
2021/03/28 01:00:52;;;;;;;;;;;;;;;0.24;100.00;101877.47;5055737;28;19925;-71
2021/03/28 01:03:32;;;;;;;;;;;;;;;0.19;100.00;101880.25;5055776;28;19963;-71
2021/03/28 01:06:01;;;;;;;;;;;;;;;0.15;100.00;101881.22;5073762;28;19928;-70
2021/03/28 01:08:32;;;;;;;;;;;;;;;0.10;100.00;101875.97;5073236;28;19970;-72
2021/03/28 01:11:09;;;;;;;;;;;;;;;0.09;100.00;101882.19;5073502;28;19959;-72
2021/03/28 01:14:00;;;;;;;;;;;;;;;0.12;100.00;101887.50;5073443;28;19924;-72
2021/03/28 01:16:50;;;;;;;;;;;;;;;0.13;100.00;101877.69;5073508;28;19924;-72
2021/03/28 01:19:32;;;;;;;;;;;;;;;0.16;100.00;101883.88;5073119;28;19924;-71
2021/03/28 01:22:03;;;;;;;;;;;;;;;0.23;100.00;101886.41;5073277;28;19986;-72
2021/03/28 01:24:33;;;;;;;;;;;;;;;0.24;100.00;101880.16;5073281;28;19960;-72
2021/03/28 01:27:09;;;;;;;;;;;;;;;0.27;100.00;101882.78;5073271;28;20544;-72
2021/03/28 01:29:38;;;;;;;;;;;;;;;0.24;100.00;101886.41;5054904;28;20336;-73
2021/03/28 01:32:07;;;;;;;;;;;;;;;0.24;100.00;101885.50;5054992;28;19924;-72
2021/03/28 01:34:35;;;;;;;;;;;;;;;0.23;100.00;101891.72;5072988;28;19929;-73
2021/03/28 01:37:04;;;;;;;;;;;;;;;0.21;100.00;101899.78;5072957;28;20309;-73
2021/03/28 01:39:38;;;;;;;;;;;;;;;0.17;100.00;101892.75;5072754;28;19931;-73
2021/03/28 01:42:11;;;;;;;;;;;;;;;0.22;100.00;101896.22;5073005;28;19928;-73
2021/03/28 01:44:43;;;;;;;;;;;;;;;0.22;100.00;101896.22;5072856;28;19943;-71
2021/03/28 01:47:12;;;;;;;;;;;;;;;0.22;100.00;101898.00;5073052;28;19974;-71
2021/03/28 01:49:53;;;;;;;;;;;;;;;0.22;100.00;101906.91;5054401;28;19928;-71
2021/03/28 01:52:25;;;;;;;;;;;;;;;0.21;100.00;101904.25;5069247;28;20451;-71
2021/03/28 01:54:56;;;;;;;;;;;;;;;0.24;100.00;101899.75;5072695;28;19925;-71
2021/03/28 01:57:27;;;;;;;;;;;;;;;0.20;100.00;101900.72;5072565;28;19924;-71
2021/03/28 02:00:07;;;;;;;;;;;;;;;0.27;100.00;101901.47;5071943;28;19970;-71
2021/03/28 02:02:39;;;;;;;;;;;;;;;0.23;100.00;101903.31;5072470;28;19978;-70
2021/03/28 02:05:10;;;;;;;;;;;;;;;0.22;100.00;101901.56;5072436;28;19931;-71
2021/03/28 02:07:45;;;;;;;;;;;;;;;0.20;100.00;101899.81;5072565;28;19931;-71
2021/03/28 02:10:18;;;;;;;;;;;;;;;0.13;100.00;101899.97;5054298;28;19925;-71
2021/03/28 02:12:46;;;;;;;;;;;;;;;0.12;100.00;101898.19;5072278;28;19925;-70
2021/03/28 02:15:25;;;;;;;;;;;;;;;0.15;100.00;101894.59;5072305;28;19924;-71
2021/03/28 02:17:55;;;;;;;;;;;;;;;0.24;100.00;101898.84;5072239;28;19924;-71
2021/03/28 02:20:40;;;;;;;;;;;;;;;0.28;100.00;101900.53;5072060;28;19975;-71
2021/03/28 02:23:10;;;;;;;;;;;;;;;0.23;100.00;101902.41;5072273;28;19931;-71
2021/03/28 02:25:39;;;;;;;;;;;;;;;0.21;100.00;101902.44;5072132;28;19928;-71
2021/03/28 02:28:11;;;;;;;;;;;;;;;0.17;100.00;101898.09;5071657;28;19931;-71
2021/03/28 02:30:47;;;;;;;;;;;;;;;0.14;100.00;101893.69;5071933;28;19929;-71
2021/03/28 02:33:18;;;;;;;;;;;;;;;0.14;100.00;101901.69;5072037;28;19931;-71
2021/03/28 02:35:49;;;;;;;;;;;;;;;0.11;100.00;101892.88;5072131;28;19932;-71
2021/03/28 02:38:20;;;;;;;;;;;;;;;0.09;100.00;101898.22;5071748;28;19925;-71
2021/03/28 02:40:49;;;;;;;;;;;;;;;0.17;100.00;101903.44;5071884;28;19929;-71
2021/03/28 02:43:27;;;;;;;;;;;;;;;0.11;100.00;101901.75;5071885;28;19975;-71
2021/03/28 02:46:05;;;;;;;;;;;;;;;0.12;100.00;101905.28;5071888;28;19924;-71
2021/03/28 02:48:40;;;;;;;;;;;;;;;0.10;100.00;101913.34;5071281;28;19928;-71
2021/03/28 02:51:25;;;;;;;;;;;;;;;0.13;100.00;101910.63;5071856;28;19947;-71
2021/03/28 02:54:12;;;;;;;;;;;;;;;0.08;100.00;101908.94;5071786;28;19932;-72
2021/03/28 02:56:46;;;;;;;;;;;;;;;0.07;100.00;101920.56;5065064;28;19978;-71
2021/03/28 02:59:21;;;;;;;;;;;;;;;0.09;100.00;101916.03;5071520;28;19928;-70
2021/03/28 03:01:56;;;;;;;;;;;;;;;0.04;100.00;101928.59;5071482;28;19966;-71
2021/03/28 03:04:31;;;;;;;;;;;;;;;0.02;100.00;101928.63;5053735;28;19925;-71
2021/03/28 03:07:04;;;;;;;;;;;;;;;-0.03;100.00;101933.16;5071609;28;19928;-71
2021/03/28 03:09:35;;;;;;;;;;;;;;;-0.10;100.00;101942.19;5071292;28;19977;-71
2021/03/28 03:12:17;;;;;;;;;;;;;;;-0.15;100.00;101939.59;5071408;28;20290;-70
2021/03/28 03:15:01;;;;;;;;;;;;;;;-0.12;100.00;101936.91;5071564;28;19931;-70
2021/03/28 03:17:40;;;;;;;;;;;;;;;-0.12;100.00;101944.91;5071411;28;19924;-72
2021/03/28 03:20:15;;;;;;;;;;;;;;;-0.08;100.00;101940.38;5076587;28;19932;-71
2021/03/28 03:23:02;;;;;;;;;;;;;;;-0.01;100.00;101936.69;5077125;28;21165;-71
2021/03/28 03:25:35;;;;;;;;;;;;;;;0.03;100.00;101945.53;5078019;28;20533;-71
2021/03/28 03:28:21;;;;;;;;;;;;;;;0.07;100.00;101941.91;5077825;28;19963;-71
2021/03/28 03:31:00;;;;;;;;;;;;;;;0.03;100.00;101945.53;5060061;28;19931;-70
2021/03/28 03:33:45;;;;;;;;;;;;;;;0.04;100.00;101945.53;5078104;28;20400;-71
2021/03/28 03:36:17;;;;;;;;;;;;;;;0.02;100.00;101947.31;5077986;28;20402;-71
2021/03/28 03:38:50;;;;;;;;;;;;;;;0.16;100.00;101944.38;5077936;28;19954;-71
2021/03/28 03:41:28;;;;;;;;;;;;;;;0.15;100.00;101953.34;5077815;28;19924;-70
2021/03/28 03:44:03;;;;;;;;;;;;;;;0.18;100.00;101952.41;5077616;28;20358;-71
2021/03/28 03:46:46;;;;;;;;;;;;;;;0.13;100.00;101953.38;5059813;28;19925;-71
2021/03/28 03:49:31;;;;;;;;;;;;;;;0.18;100.00;101955.06;5077552;28;19924;-71
2021/03/28 03:52:02;;;;;;;;;;;;;;;0.25;100.00;101957.56;5077749;28;19974;-70
2021/03/28 03:54:35;;;;;;;;;;;;;;;0.26;100.00;101961.16;5059979;28;20467;-71
2021/03/28 03:57:08;;;;;;;;;;;;;;;0.20;100.00;101963.91;5077650;28;19931;-71
2021/03/28 03:59:40;;;;;;;;;;;;;;;0.19;100.00;101965.72;5077483;28;20445;-71
2021/03/28 04:02:10;;;;;;;;;;;;;;;0.22;100.00;101968.31;5076968;28;19939;-71
2021/03/28 04:04:44;;;;;;;;;;;;;;;0.28;100.00;101970.91;5077726;28;19925;-71
2021/03/28 04:07:25;;;;;;;;;;;;;;;0.30;100.00;101968.19;5077622;28;19925;-71
2021/03/28 04:10:00;;;;;;;;;;;;;;;0.24;100.00;101970.97;5077078;28;19997;-71
2021/03/28 04:12:34;;;;;;;;;;;;;;;0.20;100.00;101971.94;5077481;28;19931;-71
2021/03/28 04:15:07;;;;;;;;;;;;;;;0.18;100.00;101973.75;5077602;28;20366;-71
2021/03/28 04:17:43;;;;;;;;;;;;;;;0.14;100.00;101973.78;5077697;28;19935;-71
2021/03/28 04:20:12;;;;;;;;;;;;;;;0.10;100.00;101972.09;5077197;28;20347;-71
2021/03/28 04:22:47;;;;;;;;;;;;;;;0.08;100.00;101973.03;5077479;28;19924;-71
2021/03/28 04:25:21;;;;;;;;;;;;;;;0.12;100.00;101962.28;5077523;28;19924;-71
2021/03/28 04:28:09;;;;;;;;;;;;;;;0.15;100.00;101969.34;5077556;28;20374;-71
2021/03/28 04:30:40;;;;;;;;;;;;;;;0.21;100.00;101968.34;5056770;28;19932;-71
2021/03/28 04:33:14;;;;;;;;;;;;;;;0.20;100.00;101961.25;5074215;28;19925;-71
2021/03/28 04:35:55;;;;;;;;;;;;;;;0.26;100.00;101969.16;5074329;28;19925;-71
2021/03/28 04:38:39;;;;;;;;;;;;;;;0.33;100.00;101965.44;5073684;28;20401;-71
2021/03/28 04:41:19;;;;;;;;;;;;;;;0.37;100.00;101963.63;5073355;28;19924;-71
2021/03/28 04:44:09;;;;;;;;;;;;;;;0.37;100.00;101966.28;5074293;28;19924;-71
2021/03/28 04:46:54;;;;;;;;;;;;;;;0.45;100.00;101965.22;5036029;28;20604;-71
2021/03/28 04:49:33;;;;;;;;;;;;;;;0.43;100.00;101967.03;5073567;28;19978;-71
2021/03/28 04:52:17;;;;;;;;;;;;;;;0.50;100.00;101966.00;5073839;28;19932;-71
2021/03/28 04:55:00;;;;;;;;;;;;;;;0.51;100.00;101974.94;5073501;28;20417;-71
2021/03/28 04:57:34;;;;;;;;;;;;;;;0.58;100.00;101973.88;5073899;28;20421;-71
2021/03/28 05:00:20;;;;;;;;;;;;;;;0.64;100.00;101981.78;5073401;28;19924;-71
2021/03/28 05:02:59;;;;;;;;;;;;;;;0.66;100.00;101979.94;5073640;28;19934;-71
2021/03/28 05:05:51;;;;;;;;;;;;;;;0.72;100.00;101980.75;5073632;28;19924;-71
2021/03/28 05:08:38;;;;;;;;;;;;;;;0.79;100.00;101975.25;5073234;28;20011;-71
2021/03/28 05:11:22;;;;;;;;;;;;;;;0.81;100.00;101970.72;5073116;28;19924;-71
2021/03/28 05:14:05;;;;;;;;;;;;;;;0.85;100.00;101976.03;5032951;28;20314;-71
2021/03/28 05:16:50;;;;;;;;;;;;;;;0.89;100.00;101977.72;5073244;28;19971;-71
2021/03/28 05:19:27;;;;;;;;;;;;;;;0.90;100.00;101975.03;5054854;28;19978;-71
2021/03/28 05:22:07;;;;;;;;;;;;;;;0.93;100.00;101972.28;5065386;28;19925;-71
2021/03/28 05:24:56;;;;;;;;;;;;;;;0.98;100.00;101975.75;5064508;28;20086;-71
2021/03/28 05:27:38;;;;;;;;;;;;;;;1.08;100.00;101981.78;5054896;28;19924;-71
2021/03/28 05:30:09;;;;;;;;;;;;;;;1.19;100.00;101980.66;5072792;28;19924;-71
2021/03/28 05:32:58;;;;;;;;;;;;;;;1.18;100.00;101985.13;5072350;28;19928;-71
2021/03/28 05:35:39;;;;;;;;;;;;;;;1.19;100.00;101983.34;5072753;28;19925;-71
2021/03/28 05:38:29;;;;;;;;;;;;;;;1.14;100.00;101987.00;5065504;28;19925;-71
2021/03/28 05:41:13;;;;;;;;;;;;;;;1.09;100.00;101985.34;5052793;28;19924;-72
2021/03/28 05:43:53;;;;;;;;;;;;;;;1.02;100.00;101975.66;5045422;28;19925;-72
2021/03/28 05:46:35;;;;;;;;;;;;;;;0.96;100.00;101976.69;5049248;28;19968;-72
2021/03/28 05:49:11;;;;;;;;;;;;;;;0.93;100.00;101976.75;5051925;28;19925;-72
2021/03/28 05:51:48;;;;;;;;;;;;;;;0.92;100.00;101983.00;5055370;28;19978;-72
2021/03/28 05:54:33;;;;;;;;;;;;;;;0.97;100.00;101975.78;5072660;28;19938;-72
2021/03/28 05:57:19;;;;;;;;;;;;;;;1.17;100.00;101980.69;5071888;28;19966;-72
2021/03/28 05:59:59;;;;;;;;;;;;;;;1.39;100.00;101991.81;5072128;28;19928;-72
2021/03/28 06:02:39;;;;;;;;;;;;;;;1.47;100.00;101986.25;5071824;28;19940;-72
2021/03/28 06:05:23;;;;;;;;;;;;;;;1.53;100.00;101980.78;5052600;28;20366;-72
2021/03/28 06:08:12;;;;;;;;;;;;;;;1.98;100.00;101982.38;5070216;28;19925;-72
2021/03/28 06:10:56;;;;;;;;;;;;;;;2.60;100.00;101976.25;5072139;28;19979;-72
2021/03/28 06:13:40;;;;;;;;;;;;;;;3.00;100.00;101971.56;5041002;28;19975;-72
2021/03/28 06:16:33;;;;;;;;;;;;;;;3.50;100.00;101970.91;5051768;28;19932;-72
2021/03/28 06:19:25;;;;;;;;;;;;;;;3.63;100.00;101976.78;5052034;28;19929;-72
2021/03/28 06:22:05;;;;;;;;;;;;;;;3.66;100.00;101974.88;5052152;28;19924;-72
2021/03/28 06:24:49;;;;;;;;;;;;;;;3.93;100.00;101979.38;5011264;28;19928;-72
2021/03/28 06:27:36;;;;;;;;;;;;;;;4.00;100.00;101973.75;5075435;28;20382;-72
2021/03/28 06:30:20;;;;;;;;;;;;;;;3.91;100.00;101976.75;5078572;28;20501;-72
2021/03/28 06:33:01;;;;;;;;;;;;;;;3.79;100.00;101980.72;5073355;28;19932;-72
2021/03/28 06:35:46;;;;;;;;;;;;;;;3.99;100.00;101981.88;5078262;28;19931;-72
2021/03/28 06:38:32;;;;;;;;;;;;;;;4.12;100.00;101985.03;5077377;28;19924;-72
2021/03/28 06:41:07;;;;;;;;;;;;;;;4.01;100.00;101980.91;5076755;28;19928;-72
2021/03/28 06:43:51;;;;;;;;;;;;;;;4.02;100.00;101982.66;5078212;28;20353;-72
2021/03/28 06:46:21;;;;;;;;;;;;;;;4.21;100.00;101981.13;5075807;28;19924;-72
2021/03/28 06:49:12;;;;;;;;;;;;;;;4.69;100.00;101985.72;5060968;28;19924;-72
2021/03/28 06:51:53;;;;;;;;;;;;;;;5.28;100.00;101975.44;5040519;28;19986;-72
2021/03/28 06:54:52;;;;;;;;;;;;;;;5.48;100.00;101978.22;5080696;28;19924;-72
2021/03/28 06:57:34;;;;;;;;;;;;;;;5.51;100.00;101972.69;5081510;28;19924;-72
2021/03/28 07:00:09;;;;;;;;;;;;;;;5.95;100.00;101976.34;5080908;28;19932;-72
2021/03/28 07:02:53;;;;;;;;;;;;;;;6.33;100.00;101965.75;5078279;28;20799;-72
2021/03/28 07:05:25;;;;;;;;;;;;;;;6.60;100.00;101971.78;5079485;28;20468;-72
2021/03/28 07:08:10;;;;;;;;;;;;;;;6.31;100.00;101963.13;5078775;28;19928;-70
2021/03/28 07:10:54;;;;;;;;;;;;;;;6.37;100.00;101967.38;5081154;28;19928;-72
2021/03/28 07:13:45;;;;;;;;;;;;;;;6.16;100.00;101972.78;5068856;28;20338;-72
2021/03/28 07:16:17;;;;;;;;;;;;;;;6.38;100.00;101974.53;5079296;28;20293;-73
2021/03/28 07:19:01;;;;;;;;;;;;;;;6.58;100.00;101976.34;5077809;28;20403;-73
2021/03/28 07:21:38;;;;;;;;;;;;;;;6.47;100.00;101973.28;5079689;28;19931;-72
2021/03/28 07:24:27;;;;;;;;;;;;;;;6.42;100.00;101972.59;5081771;28;20447;-73
2021/03/28 07:27:10;;;;;;;;;;;;;;;6.38;100.00;101966.44;5078783;28;19989;-72
2021/03/28 07:29:51;;;;;;;;;;;;;;;6.46;100.00;101966.97;5068826;28;19983;-72
2021/03/28 07:32:35;;;;;;;;;;;;;;;6.53;100.00;101970.28;5059044;28;19956;-71
2021/03/28 07:35:19;;;;;;;;;;;;;;;6.28;100.00;101970.47;5043820;28;20019;-73
2021/03/28 07:38:14;;;;;;;;;;;;;;;6.38;100.00;101977.22;5067400;28;19928;-73
2021/03/28 07:41:01;;;;;;;;;;;;;;;6.15;100.00;101973.72;5080086;28;19985;-72
2021/03/28 07:43:52;;;;;;;;;;;;;;;6.31;100.00;101973.06;5081163;28;19931;-72
2021/03/28 07:46:24;;;;;;;;;;;;;;;6.56;100.00;101980.06;5080707;28;19969;-72
2021/03/28 07:49:04;;;;;;;;;;;;;;;6.60;100.00;101978.97;5073349;28;19924;-71
2021/03/28 07:51:50;;;;;;;;;;;;;;;6.60;100.00;101981.66;5076509;28;19939;-73
2021/03/28 07:54:30;;;;;;;;;;;;;;;6.63;100.00;101978.84;5060652;28;19954;-72
2021/03/28 07:57:09;;;;;;;;;;;;;;;6.88;100.00;101978.59;5077627;28;20400;-73
2021/03/28 07:59:46;;;;;;;;;;;;;;;6.89;100.00;101982.19;5077622;28;20441;-72
2021/03/28 08:02:28;;;;;;;;;;;;;;;7.16;100.00;101978.22;5079111;28;19925;-73
2021/03/28 08:05:18;;;;;;;;;;;;;;;7.46;100.00;101979.53;5079102;28;19925;-72
2021/03/28 08:07:54;;;;;;;;;;;;;;;7.70;100.00;101977.47;5081410;28;19935;-72
2021/03/28 08:10:47;;;;;;;;;;;;;;;7.99;100.00;101972.41;5081526;28;19928;-73
2021/03/28 08:13:28;;;;;;;;;;;;;;;8.48;100.00;101975.31;5032095;28;19924;-73
2021/03/28 08:16:01;;;;;;;;;;;;;;;8.90;100.00;101974.94;5082180;28;19932;-72
2021/03/28 08:18:32;;;;;;;;;;;;;;;9.36;100.00;101972.41;5082838;28;20049;-72
2021/03/28 08:21:23;;;;;;;;;;;;;;;9.08;100.00;101971.22;5082458;28;19925;-72
2021/03/28 08:24:04;;;;;;;;;;;;;;;8.57;100.00;101973.97;5082722;28;19977;-73
2021/03/28 08:26:40;;;;;;;;;;;;;;;8.70;100.00;101980.47;5082986;28;20343;-72
2021/03/28 08:29:22;;;;;;;;;;;;;;;8.64;100.00;101980.81;5063618;28;20015;-73
2021/03/28 08:31:53;;;;;;;;;;;;;;;8.36;100.00;101992.16;5082090;28;19931;-72
2021/03/28 08:34:44;;;;;;;;;;;;;;;7.74;100.00;101984.47;5082453;28;19931;-72
2021/03/28 08:37:31;;;;;;;;;;;;;;;7.67;100.00;101983.00;5082726;28;19928;-72
2021/03/28 08:40:09;;;;;;;;;;;;;;;7.74;100.00;101984.47;5082099;28;19931;-72
2021/03/28 08:42:49;;;;;;;;;;;;;;;7.84;100.00;101979.47;5083005;28;20396;-72
2021/03/28 08:45:25;;;;;;;;;;;;;;;8.02;100.00;101981.25;5083011;28;20026;-72
2021/03/28 08:48:12;;;;;;;;;;;;;;;8.48;100.00;101978.03;5063914;28;19962;-72
2021/03/28 08:50:41;;;;;;;;;;;;;;;9.06;99.80;101978.59;5082723;28;19929;-73
2021/03/28 08:53:40;;;;;;;;;;;;;;;9.24;96.17;101979.38;5082676;28;19946;-73
2021/03/28 08:56:22;;;;;;;;;;;;;;;9.20;90.82;101970.53;5000870;28;19933;-73
2021/03/28 08:58:51;;;;;;;;;;;;;;;9.31;93.41;101979.91;4999751;28;19925;-72
2021/03/28 09:01:22;;;;;;;;;;;;;;;9.67;89.16;101976.06;5046156;28;20416;-72
2021/03/28 09:03:59;;;;;;;;;;;;;;;10.44;85.16;101971.56;5081425;28;20416;-72
2021/03/28 09:06:33;;;;;;;;;;;;;;;10.78;83.31;101982.19;5062639;28;19991;-72
2021/03/28 09:09:03;;;;;;;;;;;;;;;10.97;80.99;101961.06;5081785;28;19931;-73
2021/03/28 09:11:43;;;;;;;;;;;;;;;10.81;77.54;101963.88;5078596;28;20425;-72
2021/03/28 09:14:19;;;;;;;;;;;;;;;10.78;75.56;101972.19;5080861;28;19931;-73
2021/03/28 09:16:50;;;;;;;;;;;;;;;10.29;76.81;101961.59;5081009;28;19932;-73
2021/03/28 09:19:17;;;;;;;;;;;;;;;10.23;77.42;101962.84;5081566;28;19924;-72
2021/03/28 09:21:53;;;;;;;;;;;;;;;10.44;77.64;101963.44;5080568;28;20352;-72
2021/03/28 09:24:34;;;;;;;;;;;;;;;10.77;79.43;101958.72;5081758;28;19924;-72
2021/03/28 09:27:15;;;;;;;;;;;;;;;10.87;74.41;101952.59;5075258;28;19960;-72
2021/03/28 09:29:47;;;;;;;;;;;;;;;10.80;70.38;101953.97;5072312;28;20401;-72
2021/03/28 09:32:21;;;;;;;;;;;;;;;11.01;74.96;101948.13;5075465;28;19924;-72
2021/03/28 09:34:54;;;;;;;;;;;;;;;11.26;70.54;101946.56;5053744;28;19925;-72
2021/03/28 09:37:26;;;;;;;;;;;;;;;11.58;67.71;101946.31;5054756;28;19932;-72
2021/03/28 09:39:56;;;;;;;;;;;;;;;11.44;65.56;101949.91;5053893;28;20074;-72
2021/03/28 09:42:37;;;;;;;;;;;;;;;12.15;63.65;101950.69;5052768;28;20058;-72
2021/03/28 09:45:30;;;;;;;;;;;;;;;11.83;58.61;101949.13;5054707;28;19925;-72
2021/03/28 09:48:04;;;;;;;;;;;;;;;11.87;60.67;101934.34;5063785;28;19932;-71
2021/03/28 09:50:36;;;;;;;;;;;;;;;12.64;61.05;101932.75;5072689;28;20346;-72
2021/03/28 09:53:15;;;;;;;;;;;;;;;13.21;58.52;101923.22;5067097;28;19925;-70
2021/03/28 09:55:48;;;;;;;;;;;;;;;12.61;56.07;101931.13;5071283;28;20463;-71
2021/03/28 09:58:28;;;;;;;;;;;;;;;11.80;58.92;101930.31;5071942;28;19931;-70
2021/03/28 10:01:01;;;;;;;;;;;;;;;11.62;62.77;101928.81;5056359;28;20349;-70
2021/03/28 10:03:28;;;;;;;;;;;;;;;11.75;63.21;101937.03;5071936;28;19924;-71
2021/03/28 10:06:02;;;;;;;;;;;;;;;11.61;60.92;101936.13;5059573;28;19943;-71
2021/03/28 10:08:33;;;;;;;;;;;;;;;11.35;60.30;101924.22;5085917;28;19928;-70
2021/03/28 10:11:05;;;;;;;;;;;;;;;11.83;61.06;101929.22;5080604;28;20386;-70
2021/03/28 10:13:44;;;;;;;;;;;;;;;11.93;58.84;101943.06;5077956;28;19924;-71
2021/03/28 10:16:17;;;;;;;;;;;;;;;12.23;56.87;101926.53;5070574;28;19940;-71
2021/03/28 10:18:53;;;;;;;;;;;;;;;12.01;54.52;101930.72;5078272;28;19991;-71
2021/03/28 10:21:28;;;;;;;;;;;;;;;12.35;54.83;101913.91;5071860;28;19952;-71
2021/03/28 10:24:03;;;;;;;;;;;;;;;13.40;53.49;101922.75;5056802;28;19924;-72
2021/03/28 10:26:38;;;;;;;;;;;;;;;13.43;52.38;101905.28;5061491;28;19924;-72
2021/03/28 10:29:28;;;;;;;;;;;;;;;13.36;53.20;101911.22;5090862;28;19924;-72
2021/03/28 10:31:57;;;;;;;;;;;;;;;12.60;53.12;101915.78;5054472;28;20406;-71
2021/03/28 10:34:41;;;;;;;;;;;;;;;12.75;53.67;101911.09;5071026;28;19931;-71
2021/03/28 10:37:16;;;;;;;;;;;;;;;13.52;53.05;101910.06;5071351;28;19931;-71
2021/03/28 10:39:54;;;;;;;;;;;;;;;12.94;51.15;101910.63;5064071;28;20016;-66
2021/03/28 10:42:29;;;;;;;;;;;;;;;11.56;52.90;101928.25;5051732;28;19971;-67
2021/03/28 10:45:13;;;;;;;;;;;;;;;11.04;55.88;101907.19;5061045;28;19968;-66
2021/03/28 10:48:06;;;;;;;;;;;;;;;10.88;55.90;101913.59;5071522;28;19978;-66
2021/03/28 10:50:52;;;;;;;;;;;;;;;10.78;58.13;101904.28;5057370;28;20382;-67
2021/03/28 10:53:36;;;;;;;;;;;;;;;10.34;59.14;101905.19;5051471;28;19932;-65
2021/03/28 10:56:24;;;;;;;;;;;;;;;10.35;61.44;101902.41;5063525;28;19925;-66
2021/03/28 10:59:16;;;;;;;;;;;;;;;10.12;61.74;101916.50;5070281;28;20447;-66
2021/03/28 11:02:08;;;;;;;;;;;;;;;10.10;63.93;101904.88;5051466;28;19925;-66
2021/03/28 11:04:44;;;;;;;;;;;;;;;10.39;63.96;101903.13;5052574;28;19925;-66
2021/03/28 11:07:31;;;;;;;;;;;;;;;10.27;61.26;101899.28;5051447;28;19936;-66
2021/03/28 11:10:07;;;;;;;;;;;;;;;10.38;61.66;101898.66;5050966;28;19925;-66
2021/03/28 11:12:38;;;;;;;;;;;;;;;10.32;62.58;101899.88;5053538;28;19925;-66
2021/03/28 11:15:28;;;;;;;;;;;;;;;11.10;61.18;101889.63;5065455;28;20333;-66
2021/03/28 11:18:07;;;;;;;;;;;;;;;11.92;57.06;101908.66;5070723;28;19997;-65
2021/03/28 11:20:35;;;;;;;;;;;;;;;12.23;54.79;101899.31;5065887;28;19924;-67
2021/03/28 11:23:15;;;;;;;;;;;;;;;12.60;53.43;101884.94;5071437;28;20316;-67
2021/03/28 11:25:56;;;;;;;;;;;;;;;13.45;52.88;101887.81;5071177;28;20018;-67
2021/03/28 11:28:49;;;;;;;;;;;;;;;13.07;50.84;101891.53;5069445;28;19985;-66
2021/03/28 11:31:29;;;;;;;;;;;;;;;13.17;50.99;101895.31;5072199;28;19924;-66
2021/03/28 11:33:58;;;;;;;;;;;;;;;13.50;50.85;101891.09;5071212;28;20381;-67
2021/03/28 11:36:25;;;;;;;;;;;;;;;13.38;49.56;101883.84;5071487;28;19930;-67
2021/03/28 11:39:09;;;;;;;;;;;;;;;13.85;49.32;101883.94;5061786;28;19932;-66
2021/03/28 11:41:46;;;;;;;;;;;;;;;13.77;49.51;101880.94;5082796;28;20305;-65
2021/03/28 11:44:19;;;;;;;;;;;;;;;13.43;49.29;101869.84;5083187;28;20340;-65
2021/03/28 11:46:49;;;;;;;;;;;;;;;14.20;49.72;101873.00;5080427;28;19940;-65
2021/03/28 11:49:16;;;;;;;;;;;;;;;14.50;47.50;101867.97;5064226;28;19932;-65
2021/03/28 11:51:45;;;;;;;;;;;;;;;15.01;47.75;101875.69;5082638;28;19928;-66
2021/03/28 11:54:17;;;;;;;;;;;;;;;14.65;46.47;101868.63;5081780;28;19977;-66
2021/03/28 11:56:45;;;;;;;;;;;;;;;14.94;46.14;101870.84;5083966;28;19928;-64
2021/03/28 11:59:12;;;;;;;;;;;;;;;14.38;45.44;101870.69;5083091;28;20009;-64
2021/03/28 12:01:57;;;;;;;;;;;;;;;14.78;45.02;101865.75;5081462;28;19932;-64
2021/03/28 12:04:24;;;;;;;;;;;;;;;14.19;46.62;101882.19;5083408;28;19925;-64
2021/03/28 12:06:54;;;;;;;;;;;;;;;13.18;48.78;101877.09;5083298;28;19928;-64
2021/03/28 12:09:25;;;;;;;;;;;;;;;12.91;49.94;101869.97;5082887;28;19925;-64
2021/03/28 12:11:51;;;;;;;;;;;;;;;12.80;51.84;101868.03;5082378;28;20336;-64
2021/03/28 12:14:24;;;;;;;;;;;;;;;13.56;50.40;101866.09;5080860;28;19925;-64
2021/03/28 12:17:09;;;;;;;;;;;;;;;13.62;49.37;101862.00;5074483;28;19946;-64
2021/03/28 12:19:41;;;;;;;;;;;;;;;13.65;49.78;101867.22;5056312;28;20381;-64
2021/03/28 12:22:12;;;;;;;;;;;;;;;13.38;49.91;101873.78;5073914;28;19932;-64
2021/03/28 12:24:39;;;;;;;;;;;;;;;12.62;51.91;101861.19;5074308;28;19928;-65
2021/03/28 12:27:18;;;;;;;;;;;;;;;12.54;54.92;101865.31;5074353;28;20394;-64
2021/03/28 12:29:48;;;;;;;;;;;;;;;12.33;53.83;101848.69;5074182;28;19924;-64
2021/03/28 12:32:32;;;;;;;;;;;;;;;12.42;55.66;101860.75;5073844;28;19955;-64
2021/03/28 12:35:08;;;;;;;;;;;;;;;12.43;56.47;101851.63;5073863;28;20307;-64
2021/03/28 12:37:35;;;;;;;;;;;;;;;12.31;56.44;101866.09;5056276;28;19931;-64
2021/03/28 12:40:04;;;;;;;;;;;;;;;12.21;55.42;101839.53;5055844;28;19928;-65
2021/03/28 12:42:43;;;;;;;;;;;;;;;12.53;55.47;101841.81;5073975;28;19928;-65
2021/03/28 12:45:29;;;;;;;;;;;;;;;13.31;53.72;101844.31;5064973;28;19925;-64
2021/03/28 12:47:56;;;;;;;;;;;;;;;13.68;52.50;101844.28;5076551;28;20402;-65
2021/03/28 12:50:26;;;;;;;;;;;;;;;14.66;51.42;101840.31;5073782;28;19928;-64
2021/03/28 12:52:53;;;;;;;;;;;;;;;15.12;49.61;101831.06;5072719;28;19966;-64
2021/03/28 12:55:32;;;;;;;;;;;;;;;14.66;49.33;101827.50;5073317;28;19925;-65
2021/03/28 12:58:11;;;;;;;;;;;;;;;13.67;50.48;101821.59;5073146;28;19974;-64
2021/03/28 13:00:44;;;;;;;;;;;;;;;12.73;52.91;101831.31;5073544;28;20289;-65
2021/03/28 13:03:12;;;;;;;;;;;;;;;12.46;55.50;101817.84;5073631;28;20019;-65
2021/03/28 13:05:49;;;;;;;;;;;;;;;12.46;57.83;101826.03;5073719;28;19977;-64
2021/03/28 13:08:17;;;;;;;;;;;;;;;12.62;57.48;101823.91;5073303;28;19924;-65
2021/03/28 13:10:44;;;;;;;;;;;;;;;12.90;57.68;101811.88;5073307;28;20342;-64
2021/03/28 13:13:20;;;;;;;;;;;;;;;13.22;55.71;101811.31;5073504;28;19964;-64
2021/03/28 13:15:48;;;;;;;;;;;;;;;13.04;56.38;101799.06;5073034;28;19933;-64
2021/03/28 13:18:25;;;;;;;;;;;;;;;12.92;57.74;101808.16;5072947;28;19936;-65
2021/03/28 13:20:54;;;;;;;;;;;;;;;12.88;58.41;101804.78;5073129;28;20347;-64
2021/03/28 13:23:28;;;;;;;;;;;;;;;13.38;57.18;101810.19;5073199;28;19986;-65
2021/03/28 13:26:13;;;;;;;;;;;;;;;13.11;57.75;101800.38;5073021;28;19924;-64